createdAt,value
2019-05-10T00:00:45.652Z,9.64
2019-05-10T00:03:32.373Z,9.61
2019-05-10T00:06:19.313Z,9.65
2019-05-10T00:08:47.881Z,9.66
2019-05-10T00:11:31.116Z,9.78
2019-05-10T00:14:08.406Z,9.93
2019-05-10T00:16:37.474Z,9.81
2019-05-10T00:19:07.501Z,9.80
2019-05-10T00:21:36.377Z,9.69
2019-05-10T00:24:05.371Z,9.69
2019-05-10T00:26:34.262Z,9.64
2019-05-10T00:29:03.153Z,9.70
2019-05-10T00:31:32.084Z,9.87
2019-05-10T00:34:00.936Z,9.88
2019-05-10T00:36:29.828Z,9.93
2019-05-10T00:38:58.718Z,9.76
2019-05-10T00:41:27.612Z,9.92
2019-05-10T00:43:56.500Z,9.76
2019-05-10T00:46:25.390Z,9.77
2019-05-10T00:48:54.283Z,9.76
2019-05-10T00:51:23.175Z,9.77
2019-05-10T00:53:52.065Z,9.62
2019-05-10T00:56:20.959Z,9.67
2019-05-10T00:58:49.846Z,9.65
2019-05-10T01:01:18.888Z,9.82
2019-05-10T01:03:47.731Z,9.95
2019-05-10T01:06:16.626Z,9.78
2019-05-10T01:08:45.515Z,9.52
2019-05-10T01:11:14.404Z,9.37
2019-05-10T01:13:43.299Z,9.76
2019-05-10T01:16:12.190Z,9.75
2019-05-10T01:18:41.078Z,9.82
2019-05-10T01:21:10.583Z,9.88
2019-05-10T01:23:39.475Z,9.98
2019-05-10T01:26:08.986Z,10.03
2019-05-10T01:28:37.873Z,9.98
2019-05-10T01:31:06.869Z,9.96
2019-05-10T01:33:35.654Z,9.91
2019-05-10T01:36:04.750Z,9.89
2019-05-10T01:38:33.642Z,9.77
2019-05-10T01:41:02.534Z,9.78
2019-05-10T01:43:31.443Z,9.81
2019-05-10T01:46:00.418Z,9.75
2019-05-10T01:48:29.323Z,9.67
2019-05-10T01:50:58.893Z,9.77
2019-05-10T01:53:27.705Z,9.78
2019-05-10T01:55:56.598Z,9.80
2019-05-10T01:58:25.797Z,9.76
2019-05-10T02:00:54.687Z,9.67
2019-05-10T02:03:23.581Z,9.64
2019-05-10T02:05:52.471Z,9.75
2019-05-10T02:08:21.364Z,9.77
2019-05-10T02:10:50.252Z,9.72
2019-05-10T02:13:19.161Z,9.73
2019-05-10T02:15:48.038Z,9.72
2019-05-10T02:18:16.942Z,9.60
2019-05-10T02:20:45.816Z,9.68
2019-05-10T02:23:14.713Z,9.72
2019-05-10T02:25:43.602Z,9.75
2019-05-10T02:28:12.490Z,9.77
2019-05-10T02:30:41.384Z,9.96
2019-05-10T02:33:10.895Z,9.87
2019-05-10T02:35:39.778Z,9.77
2019-05-10T02:38:09.239Z,9.79
2019-05-10T02:40:38.138Z,9.83
2019-05-10T02:43:07.867Z,9.83
2019-05-10T02:45:36.779Z,9.81
2019-05-10T02:48:05.768Z,9.80
2019-05-10T02:50:34.662Z,9.63
2019-05-10T02:53:03.790Z,9.70
2019-05-10T02:55:34.182Z,9.80
2019-05-10T02:58:03.382Z,9.76
2019-05-10T03:00:35.040Z,9.78
2019-05-10T03:03:06.230Z,9.83
2019-05-10T03:05:40.191Z,9.78
2019-05-10T03:08:12.407Z,9.62
2019-05-10T03:10:44.118Z,9.00
2019-05-10T03:13:15.825Z,8.95
2019-05-10T03:15:47.647Z,9.23
2019-05-10T03:18:18.473Z,9.38
2019-05-10T03:20:49.207Z,9.27
2019-05-10T03:23:18.817Z,9.24
2019-05-10T03:25:47.708Z,9.31
2019-05-10T03:28:16.599Z,9.51
2019-05-10T03:30:45.490Z,9.13
2019-05-10T03:33:14.496Z,9.15
2019-05-10T03:35:43.477Z,9.02
2019-05-10T03:38:12.696Z,9.17
2019-05-10T03:40:41.669Z,9.34
2019-05-10T03:43:11.381Z,9.57
2019-05-10T03:45:40.272Z,9.62
2019-05-10T03:48:09.570Z,9.57
2019-05-10T03:50:38.464Z,9.58
2019-05-10T03:53:07.645Z,9.58
2019-05-10T03:55:36.453Z,9.78
2019-05-10T03:58:05.341Z,9.82
2019-05-10T04:00:34.232Z,9.78
2019-05-10T04:03:03.238Z,9.65
2019-05-10T04:05:32.111Z,9.64
2019-05-10T04:08:01.008Z,9.69
2019-05-10T04:10:29.999Z,9.73
2019-05-10T04:12:58.898Z,9.59
2019-05-10T04:15:27.779Z,9.63
2019-05-10T04:17:56.671Z,9.67
2019-05-10T04:20:25.565Z,9.69
2019-05-10T04:22:54.454Z,9.64
2019-05-10T04:25:23.344Z,9.66
2019-05-10T04:27:52.234Z,9.76
2019-05-10T04:30:22.665Z,9.78
2019-05-10T04:32:51.556Z,9.60
2019-05-10T04:35:20.450Z,9.70
2019-05-10T04:37:49.337Z,9.67
2019-05-10T04:40:18.227Z,9.74
2019-05-10T04:42:47.122Z,9.71
2019-05-10T04:45:16.216Z,9.70
2019-05-10T04:47:45.113Z,9.69
2019-05-10T04:50:14.087Z,9.73
2019-05-10T04:52:42.891Z,9.69
2019-05-10T04:55:12.099Z,9.67
2019-05-10T04:57:50.004Z,9.75
2019-05-10T05:00:12.361Z,9.40
2019-05-10T05:02:41.220Z,9.39
2019-05-10T05:05:12.895Z,9.60
2019-05-10T05:07:41.779Z,9.99
2019-05-10T05:10:11.067Z,9.99
2019-05-10T05:12:39.971Z,9.99
2019-05-10T05:15:09.871Z,9.95
2019-05-10T05:17:38.765Z,9.73
2019-05-10T05:20:07.856Z,9.87
2019-05-10T05:22:36.749Z,9.99
2019-05-10T05:25:07.485Z,9.64
2019-05-10T05:27:37.915Z,9.88
2019-05-10T05:30:08.111Z,10.00
2019-05-10T05:32:38.477Z,10.04
2019-05-10T05:35:07.762Z,10.06
2019-05-10T05:37:36.650Z,10.04
2019-05-10T05:40:07.716Z,10.06
2019-05-10T05:42:36.583Z,10.23
2019-05-10T05:45:09.296Z,10.15
2019-05-10T05:47:42.136Z,10.19
2019-05-10T05:50:11.077Z,10.20
2019-05-10T05:52:39.883Z,10.19
2019-05-10T05:55:09.537Z,10.19
2019-05-10T05:57:38.428Z,10.43
2019-05-10T06:00:07.429Z,10.66
2019-05-10T06:02:44.219Z,10.62
2019-05-10T06:05:09.994Z,10.76
2019-05-10T06:07:39.512Z,10.70
2019-05-10T06:10:10.425Z,10.70
2019-05-10T06:12:44.429Z,10.63
2019-05-10T06:15:12.546Z,10.76
2019-05-10T06:17:41.465Z,10.52
2019-05-10T06:20:12.364Z,10.58
2019-05-10T06:22:45.563Z,10.74
2019-05-10T06:25:12.639Z,10.88
2019-05-10T06:27:43.274Z,10.84
2019-05-10T06:30:13.712Z,10.86
2019-05-10T06:32:42.566Z,10.83
2019-05-10T06:35:14.277Z,11.05
2019-05-10T06:37:42.685Z,11.15
2019-05-10T06:40:12.657Z,11.14
2019-05-10T06:42:41.511Z,11.15
2019-05-10T06:45:15.760Z,11.17
2019-05-10T06:47:47.546Z,11.07
2019-05-10T06:50:13.894Z,11.15
2019-05-10T06:52:42.706Z,11.27
2019-05-10T06:55:12.622Z,11.31
2019-05-10T06:57:41.512Z,11.31
2019-05-10T07:00:12.748Z,11.40
2019-05-10T07:02:41.651Z,11.53
2019-05-10T07:05:11.567Z,11.69
2019-05-10T07:07:44.761Z,11.73
2019-05-10T07:10:19.087Z,11.69
2019-05-10T07:12:45.460Z,11.70
2019-05-10T07:15:16.042Z,11.82
2019-05-10T07:17:47.296Z,11.83
2019-05-10T07:20:16.639Z,11.93
2019-05-10T07:22:45.479Z,11.96
2019-05-10T07:25:14.474Z,12.02
2019-05-10T07:27:44.222Z,12.04
2019-05-10T07:30:14.301Z,12.09
2019-05-10T07:32:43.193Z,11.88
2019-05-10T07:35:13.019Z,11.76
2019-05-10T07:37:41.898Z,11.92
2019-05-10T07:40:11.098Z,12.09
2019-05-10T07:42:45.366Z,11.86
2019-05-10T07:45:11.851Z,11.77
2019-05-10T07:47:40.740Z,12.21
2019-05-10T07:50:11.648Z,12.14
2019-05-10T07:52:43.661Z,12.35
2019-05-10T07:55:18.684Z,12.09
2019-05-10T07:57:44.192Z,12.28
2019-05-10T08:00:14.358Z,12.45
2019-05-10T08:02:52.756Z,12.53
2019-05-10T08:05:18.466Z,12.61
2019-05-10T08:07:49.492Z,12.41
2019-05-10T08:10:18.676Z,12.70
2019-05-10T08:12:49.010Z,12.91
2019-05-10T08:15:19.538Z,12.95
2019-05-10T08:17:50.914Z,12.95
2019-05-10T08:20:33.359Z,12.86
2019-05-10T08:22:49.995Z,12.32
2019-05-10T08:25:18.886Z,12.52
2019-05-10T08:27:50.502Z,12.64
2019-05-10T08:30:28.469Z,12.80
2019-05-10T08:32:52.634Z,12.77
2019-05-10T08:35:21.727Z,12.74
2019-05-10T08:37:52.891Z,12.91
2019-05-10T08:40:26.054Z,12.72
2019-05-10T08:43:02.833Z,12.81
2019-05-10T08:45:22.722Z,12.96
2019-05-10T08:47:52.628Z,13.34
2019-05-10T08:50:42.599Z,13.38
2019-05-10T08:52:56.753Z,13.47
2019-05-10T08:55:23.398Z,13.65
2019-05-10T08:57:52.578Z,13.60
2019-05-10T09:00:40.258Z,13.49
2019-05-10T09:02:52.230Z,13.63
2019-05-10T09:05:28.907Z,13.79
2019-05-10T09:07:52.204Z,13.30
2019-05-10T09:10:22.145Z,13.38
2019-05-10T09:12:57.604Z,13.69
2019-05-10T09:15:22.417Z,13.49
2019-05-10T09:17:52.719Z,13.47
2019-05-10T09:20:26.120Z,13.83
2019-05-10T09:22:52.785Z,13.87
2019-05-10T09:25:28.767Z,13.78
2019-05-10T09:27:53.224Z,13.66
2019-05-10T09:30:32.442Z,13.42
2019-05-10T09:33:08.644Z,13.54
2019-05-10T09:35:33.038Z,13.55
2019-05-10T09:38:02.156Z,13.49
2019-05-10T09:40:32.760Z,13.40
2019-05-10T09:43:05.134Z,13.28
2019-05-10T09:45:32.604Z,13.78
2019-05-10T09:48:02.479Z,13.68
2019-05-10T09:50:41.319Z,13.51
2019-05-10T09:53:02.302Z,13.55
2019-05-10T09:55:32.829Z,13.69
2019-05-10T09:58:01.721Z,14.00
2019-05-10T10:00:33.122Z,14.23
2019-05-10T10:03:02.071Z,14.10
2019-05-10T10:05:32.538Z,14.24
2019-05-10T10:08:03.766Z,14.55
2019-05-10T10:10:32.613Z,14.54
2019-05-10T10:13:08.374Z,14.40
2019-05-10T10:15:34.237Z,14.20
2019-05-10T10:18:02.886Z,14.32
2019-05-10T10:20:36.013Z,14.68
2019-05-10T10:23:04.046Z,14.23
2019-05-10T10:25:35.064Z,13.96
2019-05-10T10:28:08.289Z,14.39
2019-05-10T10:30:37.316Z,14.65
2019-05-10T10:33:11.113Z,14.73
2019-05-10T10:35:37.816Z,14.82
2019-05-10T10:38:08.202Z,14.69
2019-05-10T10:40:44.354Z,14.83
2019-05-10T10:43:09.213Z,14.69
2019-05-10T10:45:38.096Z,14.76
2019-05-10T10:48:08.588Z,14.61
2019-05-10T10:50:37.619Z,14.59
2019-05-10T10:53:08.008Z,14.44
2019-05-10T10:55:39.992Z,14.64
2019-05-10T10:58:07.874Z,14.92
2019-05-10T11:00:38.891Z,15.16
2019-05-10T11:03:08.835Z,15.58
2019-05-10T11:05:37.831Z,15.40
2019-05-10T11:08:06.721Z,15.47
2019-05-10T11:10:35.633Z,15.60
2019-05-10T11:13:11.963Z,15.62
2019-05-10T11:15:36.599Z,15.85
2019-05-10T11:18:05.665Z,15.87
2019-05-10T11:20:34.553Z,15.94
2019-05-10T11:23:03.546Z,15.62
2019-05-10T11:25:32.440Z,15.69
2019-05-10T11:28:01.863Z,15.78
2019-05-10T11:30:32.464Z,15.04
2019-05-10T11:33:01.778Z,15.10
2019-05-10T11:35:33.817Z,15.84
2019-05-10T11:38:01.372Z,15.90
2019-05-10T11:40:32.689Z,15.57
2019-05-10T11:43:01.520Z,15.60
2019-05-10T11:45:33.630Z,15.25
2019-05-10T11:48:02.121Z,15.16
2019-05-10T11:50:35.034Z,15.06
2019-05-10T11:53:06.825Z,15.46
2019-05-10T11:55:35.790Z,15.60
2019-05-10T11:58:09.029Z,15.84
2019-05-10T12:00:35.037Z,15.61
2019-05-10T12:03:11.321Z,15.33
2019-05-10T12:05:34.561Z,15.61
2019-05-10T12:08:03.456Z,15.72
2019-05-10T12:10:32.358Z,16.45
2019-05-10T12:13:11.280Z,16.45
2019-05-10T12:15:32.086Z,16.15
2019-05-10T12:18:04.733Z,16.41
2019-05-10T12:20:41.280Z,16.44
2019-05-10T12:23:03.395Z,16.11
2019-05-10T12:26:15.764Z,16.08
2019-05-10T12:28:03.496Z,16.20
2019-05-10T12:30:34.878Z,16.63
2019-05-10T12:33:08.764Z,16.40
2019-05-10T12:35:41.880Z,16.28
2019-05-10T12:38:06.437Z,16.24
2019-05-10T12:40:35.320Z,16.46
2019-05-10T12:43:04.212Z,16.67
2019-05-10T12:45:33.103Z,16.95
2019-05-10T12:48:01.998Z,17.03
2019-05-10T12:50:30.884Z,17.06
2019-05-10T12:53:13.379Z,16.81
2019-05-10T12:55:30.573Z,16.43
2019-05-10T12:57:59.505Z,16.54
2019-05-10T13:00:28.396Z,16.37
2019-05-10T13:03:12.424Z,16.50
2019-05-10T13:05:34.092Z,16.63
2019-05-10T13:08:01.315Z,16.64
2019-05-10T13:10:30.457Z,17.00
2019-05-10T13:12:59.615Z,17.26
2019-05-10T13:15:31.299Z,17.46
2019-05-10T13:17:59.233Z,17.21
2019-05-10T13:20:30.982Z,17.88
2019-05-10T13:22:58.759Z,17.35
2019-05-10T13:25:27.650Z,17.91
2019-05-10T13:27:56.588Z,18.12
2019-05-10T13:30:28.222Z,18.29
2019-05-10T13:32:58.690Z,18.21
2019-05-10T13:35:27.720Z,17.99
2019-05-10T13:38:02.486Z,18.24
2019-05-10T13:40:27.144Z,18.24
2019-05-10T13:42:56.030Z,18.48
2019-05-10T13:45:24.923Z,19.05
2019-05-10T13:47:53.814Z,18.34
2019-05-10T13:50:22.705Z,18.73
2019-05-10T13:52:51.597Z,18.73
2019-05-10T13:55:20.489Z,18.56
2019-05-10T13:57:49.380Z,18.97
2019-05-10T14:00:20.038Z,19.44
2019-05-10T14:02:49.017Z,19.00
2019-05-10T14:05:19.991Z,18.47
2019-05-10T14:07:51.735Z,19.24
2019-05-10T14:10:23.555Z,19.52
2019-05-10T14:12:49.895Z,19.16
2019-05-10T14:15:18.994Z,19.42
2019-05-10T14:17:47.881Z,19.43
2019-05-10T14:20:25.082Z,19.89
2019-05-10T14:22:56.053Z,19.63
2019-05-10T14:25:18.241Z,19.48
2019-05-10T14:27:47.135Z,19.52
2019-05-10T14:30:16.351Z,19.48
2019-05-10T14:32:45.222Z,19.55
2019-05-10T14:35:16.424Z,19.53
2019-05-10T14:37:47.881Z,19.37
2019-05-10T14:40:17.053Z,19.38
2019-05-10T14:42:47.645Z,19.89
2019-05-10T14:45:16.745Z,20.01
2019-05-10T14:47:50.011Z,19.81
2019-05-10T14:50:19.468Z,19.55
2019-05-10T14:52:48.122Z,19.98
2019-05-10T14:55:17.119Z,19.64
2019-05-10T14:57:46.009Z,19.62
2019-05-10T15:00:15.266Z,18.85
2019-05-10T15:02:44.097Z,18.85
2019-05-10T15:05:16.023Z,18.59
2019-05-10T15:07:43.826Z,18.57
2019-05-10T15:10:13.742Z,18.52
2019-05-10T15:12:42.640Z,18.65
2019-05-10T15:15:12.751Z,18.72
2019-05-10T15:17:41.647Z,18.74
2019-05-10T15:20:11.868Z,18.44
2019-05-10T15:22:40.755Z,18.34
2019-05-10T15:25:11.481Z,18.33
2019-05-10T15:27:40.381Z,18.32
2019-05-10T15:30:10.413Z,18.40
2019-05-10T15:32:39.295Z,18.33
2019-05-10T15:35:09.402Z,18.33
2019-05-10T15:37:40.918Z,18.09
2019-05-10T15:40:09.633Z,18.02
2019-05-10T15:42:38.671Z,18.05
2019-05-10T15:45:12.142Z,17.82
2019-05-10T15:47:50.829Z,17.59
2019-05-10T15:50:11.432Z,17.51
2019-05-10T15:52:46.379Z,17.51
2019-05-10T15:55:16.559Z,17.46
2019-05-10T15:57:43.051Z,17.32
2019-05-10T16:00:12.960Z,17.36
2019-05-10T16:02:41.862Z,17.17
2019-05-10T16:05:25.585Z,17.20
2019-05-10T16:07:46.383Z,17.23
2019-05-10T16:10:14.163Z,17.13
2019-05-10T16:12:44.609Z,17.00
2019-05-10T16:15:19.926Z,16.89
2019-05-10T16:17:44.318Z,16.81
2019-05-10T16:20:17.815Z,16.93
2019-05-10T16:22:46.714Z,17.03
2019-05-10T16:25:15.568Z,16.99
2019-05-10T16:27:45.089Z,17.04
2019-05-10T16:30:17.768Z,17.10
2019-05-10T16:32:45.144Z,17.16
2019-05-10T16:35:14.827Z,17.07
2019-05-10T16:37:43.852Z,17.06
2019-05-10T16:40:13.741Z,17.10
2019-05-10T16:42:42.651Z,17.02
2019-05-10T16:45:12.770Z,17.20
2019-05-10T16:47:41.767Z,17.25
2019-05-10T16:50:12.044Z,17.23
2019-05-10T16:52:40.982Z,17.46
2019-05-10T16:55:10.299Z,18.10
2019-05-10T16:57:39.715Z,18.23
2019-05-10T17:00:10.707Z,18.18
2019-05-10T17:02:44.016Z,18.07
2019-05-10T17:05:15.846Z,18.29
2019-05-10T17:07:44.155Z,18.37
2019-05-10T17:10:14.892Z,18.54
2019-05-10T17:12:43.781Z,18.94
2019-05-10T17:15:13.706Z,19.24
2019-05-10T17:17:44.859Z,19.39
2019-05-10T17:20:15.492Z,19.72
2019-05-10T17:22:43.958Z,19.37
2019-05-10T17:25:13.570Z,18.97
2019-05-10T17:27:42.457Z,18.76
2019-05-10T17:30:12.267Z,18.72
2019-05-10T17:32:42.180Z,18.71
2019-05-10T17:35:11.607Z,18.64
2019-05-10T17:37:40.475Z,18.86
2019-05-10T17:40:12.088Z,18.69
2019-05-10T17:42:41.590Z,18.07
2019-05-10T17:45:12.681Z,18.01
2019-05-10T17:47:41.570Z,18.04
2019-05-10T17:50:11.664Z,17.90
2019-05-10T17:52:40.581Z,17.64
2019-05-10T17:55:16.893Z,17.72
2019-05-10T17:57:40.828Z,17.53
2019-05-10T18:00:11.011Z,17.30
2019-05-10T18:02:39.830Z,17.87
2019-05-10T18:05:09.750Z,18.20
2019-05-10T18:07:38.638Z,18.16
2019-05-10T18:10:08.639Z,18.32
2019-05-10T18:12:37.448Z,18.45
2019-05-10T18:15:08.021Z,17.76
2019-05-10T18:17:36.867Z,17.73
2019-05-10T18:20:06.362Z,18.29
2019-05-10T18:22:43.425Z,18.33
2019-05-10T18:25:06.512Z,17.98
2019-05-10T18:27:35.405Z,18.11
2019-05-10T18:30:05.021Z,18.48
2019-05-10T18:32:36.953Z,18.33
2019-05-10T18:35:14.933Z,18.22
2019-05-10T18:37:39.567Z,18.09
2019-05-10T18:40:09.566Z,17.92
2019-05-10T18:42:40.012Z,17.50
2019-05-10T18:45:09.849Z,17.21
2019-05-10T18:47:38.713Z,17.11
2019-05-10T18:50:08.016Z,16.97
2019-05-10T18:52:36.911Z,16.88
2019-05-10T18:55:06.731Z,16.61
2019-05-10T18:57:36.228Z,16.56
2019-05-10T19:00:06.606Z,16.50
2019-05-10T19:02:35.560Z,16.48
2019-05-10T19:05:06.382Z,16.53
2019-05-10T19:07:35.375Z,16.58
2019-05-10T19:10:06.681Z,16.47
2019-05-10T19:12:36.160Z,16.31
2019-05-10T19:15:08.992Z,16.39
2019-05-10T19:17:40.392Z,16.34
2019-05-10T19:20:16.296Z,16.25
2019-05-10T19:22:42.791Z,16.09
2019-05-10T19:25:14.444Z,16.03
2019-05-10T19:27:44.233Z,15.89
2019-05-10T19:30:20.066Z,15.83
2019-05-10T19:32:44.866Z,15.95
2019-05-10T19:35:14.172Z,15.83
2019-05-10T19:37:44.700Z,15.59
2019-05-10T19:40:14.698Z,15.48
2019-05-10T19:42:44.809Z,15.43
2019-05-10T19:45:19.410Z,15.27
2019-05-10T19:47:49.971Z,15.27
2019-05-10T19:50:18.085Z,15.31
2019-05-10T19:52:46.966Z,15.34
2019-05-10T19:55:19.343Z,15.39
2019-05-10T19:57:54.953Z,15.36
2019-05-10T20:00:22.023Z,15.27
2019-05-10T20:02:50.917Z,15.15
2019-05-10T20:05:20.011Z,15.14
2019-05-10T20:07:48.906Z,15.13
2019-05-10T20:10:18.114Z,15.25
2019-05-10T20:12:47.002Z,15.30
2019-05-10T20:15:16.196Z,15.36
2019-05-10T20:17:45.411Z,15.33
2019-05-10T20:20:14.692Z,15.37
2019-05-10T20:22:43.582Z,15.27
2019-05-10T20:25:13.601Z,15.28
2019-05-10T20:27:43.924Z,15.24
2019-05-10T20:30:13.942Z,15.25
2019-05-10T20:32:44.265Z,15.19
2019-05-10T20:35:13.167Z,15.23
2019-05-10T20:37:42.049Z,15.18
2019-05-10T20:40:11.523Z,15.09
2019-05-10T20:42:40.356Z,14.98
2019-05-10T20:45:10.287Z,15.01
2019-05-10T20:47:39.154Z,14.76
2019-05-10T20:50:08.953Z,14.42
2019-05-10T20:52:39.286Z,14.54
2019-05-10T20:55:09.601Z,14.68
2019-05-10T20:57:38.503Z,14.66
2019-05-10T21:00:08.206Z,14.66
2019-05-10T21:02:37.105Z,14.69
2019-05-10T21:05:07.211Z,15.05
2019-05-10T21:07:36.113Z,15.07
2019-05-10T21:10:05.823Z,15.06
2019-05-10T21:12:34.719Z,15.05
2019-05-10T21:15:04.426Z,15.14
2019-05-10T21:17:33.316Z,15.16
2019-05-10T21:20:02.207Z,15.11
2019-05-10T21:22:31.103Z,15.07
2019-05-10T21:25:00.095Z,15.04
2019-05-10T21:27:28.985Z,14.93
2019-05-10T21:29:57.940Z,14.89
2019-05-10T21:32:26.867Z,14.91
2019-05-10T21:34:56.783Z,14.81
2019-05-10T21:37:25.695Z,14.92
2019-05-10T21:39:54.564Z,14.89
2019-05-10T21:42:23.454Z,14.79
2019-05-10T21:44:52.345Z,14.74
2019-05-10T21:47:21.239Z,14.56
2019-05-10T21:49:50.127Z,14.57
2019-05-10T21:52:19.122Z,14.67
2019-05-10T21:54:48.015Z,14.63
2019-05-10T21:57:16.903Z,14.60
2019-05-10T21:59:45.794Z,14.48
2019-05-10T22:02:15.077Z,14.60
2019-05-10T22:04:47.798Z,14.63
2019-05-10T22:07:14.926Z,14.54
2019-05-10T22:09:43.820Z,14.53
2019-05-10T22:12:12.825Z,14.36
2019-05-10T22:14:41.703Z,14.32
2019-05-10T22:17:11.632Z,14.24
2019-05-10T22:19:40.510Z,14.23
2019-05-10T22:22:09.812Z,14.28
2019-05-10T22:24:38.704Z,14.29
2019-05-10T22:27:08.310Z,14.40
2019-05-10T22:29:37.201Z,14.48
2019-05-10T22:32:06.094Z,14.51
2019-05-10T22:34:34.982Z,14.40
2019-05-10T22:37:03.871Z,14.33
2019-05-10T22:39:32.762Z,14.34
2019-05-10T22:42:02.063Z,14.24
2019-05-10T22:44:30.955Z,14.25
2019-05-10T22:46:59.845Z,14.26
2019-05-10T22:49:28.738Z,14.34
2019-05-10T22:51:57.628Z,14.33
2019-05-10T22:54:26.520Z,14.42
2019-05-10T22:56:55.468Z,14.33
2019-05-10T22:59:24.302Z,13.66
2019-05-10T23:01:53.199Z,13.62
2019-05-10T23:04:22.187Z,13.74
2019-05-10T23:06:51.123Z,13.95
2019-05-10T23:09:24.561Z,14.04
2019-05-10T23:11:50.506Z,13.95
2019-05-10T23:14:19.388Z,13.80
2019-05-10T23:16:48.280Z,14.03
2019-05-10T23:19:18.809Z,13.86
2019-05-10T23:21:47.703Z,14.03
2019-05-10T23:24:21.203Z,14.01
2019-05-10T23:26:50.090Z,13.99
2019-05-10T23:29:18.981Z,13.53
2019-05-10T23:31:47.879Z,13.19
2019-05-10T23:34:16.768Z,13.19
2019-05-10T23:36:45.659Z,13.19
2019-05-10T23:39:14.550Z,13.22
2019-05-10T23:41:44.976Z,13.36
2019-05-10T23:44:13.866Z,13.46
2019-05-10T23:46:42.759Z,13.46
2019-05-10T23:49:12.260Z,13.53
2019-05-10T23:51:41.634Z,13.61
2019-05-10T23:54:11.074Z,13.53
2019-05-10T23:56:39.964Z,13.54
2019-05-10T23:59:09.673Z,13.31
